createdAt,value
2022-11-17T00:01:41.042Z,53.14
2022-11-17T00:04:12.437Z,53.73
2022-11-17T00:06:42.919Z,53.35
2022-11-17T00:09:20.454Z,52.05
2022-11-17T00:12:10.842Z,53.70
2022-11-17T00:14:43.725Z,52.12
2022-11-17T00:17:15.382Z,55.66
2022-11-17T00:20:08.005Z,50.83
2022-11-17T00:22:37.951Z,50.85
2022-11-17T00:25:08.786Z,52.28
2022-11-17T00:27:39.161Z,50.60
2022-11-17T00:30:10.086Z,51.75
2022-11-17T00:32:58.945Z,50.60
2022-11-17T00:35:28.966Z,51.07
2022-11-17T00:38:17.240Z,50.88
2022-11-17T00:40:47.389Z,50.33
2022-11-17T00:43:18.490Z,50.58
2022-11-17T00:45:48.971Z,50.26
2022-11-17T00:48:20.439Z,50.13
2022-11-17T00:50:51.039Z,50.60
2022-11-17T00:53:21.303Z,50.60
2022-11-17T00:55:52.415Z,50.81
2022-11-17T00:58:22.542Z,50.30
2022-11-17T01:00:53.817Z,50.20
2022-11-17T01:03:24.041Z,51.84
2022-11-17T01:05:54.569Z,50.06
2022-11-17T01:08:24.745Z,49.72
2022-11-17T01:10:55.575Z,50.11
2022-11-17T01:13:26.149Z,49.94
2022-11-17T01:15:56.311Z,49.71
2022-11-17T01:18:26.359Z,49.79
2022-11-17T01:20:56.360Z,49.92
2022-11-17T01:23:27.986Z,49.82
2022-11-17T01:26:07.908Z,50.00
2022-11-17T01:28:38.701Z,49.62
2022-11-17T01:31:13.075Z,49.68
2022-11-17T01:33:44.396Z,49.43
2022-11-17T01:36:17.483Z,49.62
2022-11-17T01:38:47.579Z,49.58
2022-11-17T01:41:25.028Z,49.65
2022-11-17T01:44:00.743Z,49.33
2022-11-17T01:46:36.610Z,49.08
2022-11-17T01:49:05.972Z,49.36
2022-11-17T01:51:40.146Z,49.24
2022-11-17T01:54:15.045Z,49.55
2022-11-17T01:56:48.684Z,49.03
2022-11-17T01:59:30.698Z,49.08
2022-11-17T02:02:01.428Z,49.16
2022-11-17T02:04:43.182Z,48.92
2022-11-17T02:07:22.043Z,49.44
2022-11-17T02:09:55.097Z,49.37
2022-11-17T02:12:28.785Z,48.50
2022-11-17T02:14:59.348Z,49.37
2022-11-17T02:17:42.465Z,48.80
2022-11-17T02:20:54.689Z,49.11
2022-11-17T02:23:47.874Z,48.76
2022-11-17T02:26:35.539Z,49.05
2022-11-17T02:29:23.090Z,48.97
2022-11-17T02:32:11.237Z,48.72
2022-11-17T02:34:49.414Z,48.50
2022-11-17T02:37:50.279Z,48.60
2022-11-17T02:40:39.408Z,48.29
2022-11-17T02:43:36.756Z,48.70
2022-11-17T02:46:16.170Z,48.67
2022-11-17T02:48:52.731Z,48.50
2022-11-17T02:51:25.446Z,48.36
2022-11-17T02:53:58.737Z,48.20
2022-11-17T02:56:28.853Z,48.50
2022-11-17T02:59:07.129Z,48.67
2022-11-17T03:01:37.906Z,48.35
2022-11-17T03:04:46.821Z,48.45
2022-11-17T03:07:52.173Z,48.07
2022-11-17T03:10:36.364Z,47.94
2022-11-17T03:13:18.917Z,48.17
2022-11-17T03:15:58.990Z,47.71
2022-11-17T03:18:44.574Z,47.96
2022-11-17T03:21:42.181Z,48.13
2022-11-17T03:24:16.035Z,48.03
2022-11-17T03:26:54.291Z,47.82
2022-11-17T03:29:28.759Z,48.18
2022-11-17T03:32:05.372Z,47.84
2022-11-17T03:34:41.427Z,47.67
2022-11-17T03:37:15.757Z,48.10
2022-11-17T03:39:47.198Z,47.74
2022-11-17T03:42:23.277Z,47.94
2022-11-17T03:44:57.447Z,47.69
2022-11-17T03:47:31.479Z,47.59
2022-11-17T03:50:34.175Z,47.68
2022-11-17T03:53:04.622Z,48.09
2022-11-17T03:56:03.485Z,47.98
2022-11-17T03:58:40.133Z,47.56
2022-11-17T04:01:10.614Z,47.61
2022-11-17T04:03:41.299Z,47.85
2022-11-17T04:06:11.790Z,47.09
2022-11-17T04:08:41.754Z,47.73
2022-11-17T04:11:29.869Z,47.72
2022-11-17T04:14:18.293Z,47.29
2022-11-17T04:16:48.905Z,47.50
2022-11-17T04:19:19.030Z,46.91
2022-11-17T04:21:49.042Z,47.11
2022-11-17T04:24:19.690Z,47.31
2022-11-17T04:27:08.885Z,47.47
2022-11-17T04:29:40.193Z,47.33
2022-11-17T04:32:10.317Z,46.88
2022-11-17T04:34:42.881Z,46.43
2022-11-17T04:37:18.512Z,46.34
2022-11-17T04:39:48.897Z,47.12
2022-11-17T04:42:18.768Z,46.77
2022-11-17T04:44:48.724Z,46.64
2022-11-17T04:47:18.629Z,46.44
2022-11-17T04:49:48.673Z,47.13
2022-11-17T04:52:19.386Z,46.25
2022-11-17T04:54:50.159Z,46.86
2022-11-17T04:57:20.899Z,46.37
2022-11-17T04:59:50.799Z,46.22
2022-11-17T05:02:21.371Z,47.17
2022-11-17T05:04:58.377Z,46.85
2022-11-17T05:07:29.388Z,46.30
2022-11-17T05:09:59.721Z,46.80
2022-11-17T05:12:47.572Z,46.31
2022-11-17T05:15:37.265Z,46.63
2022-11-17T05:18:07.338Z,46.42
2022-11-17T05:20:37.345Z,46.09
2022-11-17T05:23:26.277Z,46.39
2022-11-17T05:25:56.240Z,45.06
2022-11-17T05:28:26.870Z,46.29
2022-11-17T05:30:56.913Z,46.33
2022-11-17T05:33:27.707Z,45.49
2022-11-17T05:35:57.861Z,46.11
2022-11-17T05:38:27.939Z,45.85
2022-11-17T05:40:58.550Z,46.11
2022-11-17T05:43:28.863Z,44.98
2022-11-17T05:45:59.277Z,46.07
2022-11-17T05:48:31.157Z,46.62
2022-11-17T05:51:02.755Z,45.06
2022-11-17T05:53:34.364Z,45.58
2022-11-17T05:56:32.240Z,45.55
2022-11-17T05:59:14.759Z,46.04
2022-11-17T06:02:10.727Z,45.99
2022-11-17T06:04:42.008Z,45.71
2022-11-17T06:07:12.692Z,45.71
2022-11-17T06:09:44.035Z,45.68
2022-11-17T06:12:14.369Z,45.77
2022-11-17T06:14:45.503Z,45.58
2022-11-17T06:17:27.917Z,45.18
2022-11-17T06:20:10.822Z,45.80
2022-11-17T06:22:47.042Z,45.66
2022-11-17T06:25:22.557Z,44.76
2022-11-17T06:27:54.144Z,45.69
2022-11-17T06:30:24.221Z,45.46
2022-11-17T06:32:55.470Z,45.22
2022-11-17T06:35:26.881Z,44.87
2022-11-17T06:37:56.917Z,45.21
2022-11-17T06:40:26.961Z,45.02
2022-11-17T06:43:26.309Z,45.20
2022-11-17T06:45:56.600Z,44.89
2022-11-17T06:48:29.336Z,44.97
2022-11-17T06:50:59.297Z,44.70
2022-11-17T06:53:30.314Z,44.34
2022-11-17T06:56:06.909Z,44.71
2022-11-17T06:58:39.872Z,44.90
2022-11-17T07:01:12.442Z,44.75
2022-11-17T07:03:44.583Z,44.34
2022-11-17T07:06:15.265Z,44.31
2022-11-17T07:08:47.948Z,44.52
2022-11-17T07:11:18.576Z,44.31
2022-11-17T07:13:48.643Z,44.47
2022-11-17T07:16:24.356Z,44.53
2022-11-17T07:18:54.997Z,44.83
2022-11-17T07:21:25.481Z,44.51
2022-11-17T07:23:56.397Z,44.35
2022-11-17T07:26:26.584Z,44.12
2022-11-17T07:28:56.837Z,44.18
2022-11-17T07:31:26.787Z,44.60
2022-11-17T07:33:56.823Z,44.27
2022-11-17T07:36:26.772Z,44.29
2022-11-17T07:38:57.244Z,44.27
2022-11-17T07:41:28.273Z,44.29
2022-11-17T07:43:58.384Z,44.60
2022-11-17T07:46:28.408Z,44.27
2022-11-17T07:48:58.412Z,44.74
2022-11-17T07:51:28.624Z,44.38
2022-11-17T07:53:58.549Z,44.63
2022-11-17T07:56:28.603Z,44.35
2022-11-17T07:58:58.652Z,44.56
2022-11-17T08:01:28.790Z,44.43
2022-11-17T08:04:00.426Z,44.20
2022-11-17T08:06:31.385Z,44.46
2022-11-17T08:09:01.928Z,44.60
2022-11-17T08:11:34.234Z,44.21
2022-11-17T08:14:05.145Z,44.55
2022-11-17T08:16:35.826Z,44.75
2022-11-17T08:19:08.240Z,44.20
2022-11-17T08:21:39.657Z,44.54
2022-11-17T08:24:11.175Z,44.19
2022-11-17T08:26:43.264Z,43.68
2022-11-17T08:29:13.599Z,44.18
2022-11-17T08:31:47.604Z,43.79
2022-11-17T08:34:18.024Z,44.25
2022-11-17T08:36:48.803Z,44.37
2022-11-17T08:39:18.881Z,44.18
2022-11-17T08:41:49.764Z,44.14
2022-11-17T08:44:20.200Z,44.56
2022-11-17T08:46:50.481Z,44.10
2022-11-17T08:49:21.391Z,44.63
2022-11-17T08:51:52.215Z,44.81
2022-11-17T08:54:22.676Z,44.99
2022-11-17T08:56:53.731Z,44.75
2022-11-17T08:59:23.640Z,44.43
2022-11-17T09:01:53.899Z,44.75
2022-11-17T09:04:25.026Z,44.61
2022-11-17T09:06:55.504Z,45.18
2022-11-17T09:09:26.067Z,45.16
2022-11-17T09:11:56.540Z,45.10
2022-11-17T09:14:26.604Z,45.33
2022-11-17T09:16:56.602Z,45.48
2022-11-17T09:19:26.516Z,45.37
2022-11-17T09:21:56.578Z,45.29
2022-11-17T09:24:27.912Z,45.07
2022-11-17T09:26:58.883Z,45.43
2022-11-17T09:29:28.840Z,45.25
2022-11-17T09:31:59.211Z,45.60
2022-11-17T09:34:30.668Z,46.03
2022-11-17T09:37:01.170Z,45.69
2022-11-17T09:39:31.501Z,45.61
2022-11-17T09:42:02.704Z,45.80
2022-11-17T09:44:53.784Z,45.96
2022-11-17T09:47:46.107Z,45.74
2022-11-17T09:50:40.554Z,46.29
2022-11-17T09:53:51.469Z,46.70
2022-11-17T09:56:21.864Z,46.52
2022-11-17T09:59:00.228Z,47.53
2022-11-17T10:01:32.044Z,46.48
2022-11-17T10:04:02.772Z,46.28
2022-11-17T10:06:34.223Z,47.04
2022-11-17T10:09:13.425Z,46.73
2022-11-17T10:11:46.316Z,46.27
2022-11-17T10:14:24.454Z,46.54
2022-11-17T10:17:00.640Z,46.56
2022-11-17T10:19:32.618Z,46.94
2022-11-17T10:22:06.867Z,46.22
2022-11-17T10:24:38.618Z,46.99
2022-11-17T10:27:21.503Z,46.42
2022-11-17T10:30:06.290Z,47.18
2022-11-17T10:32:54.313Z,47.40
2022-11-17T10:35:27.225Z,46.89
2022-11-17T10:37:59.896Z,47.16
2022-11-17T10:40:47.411Z,47.11
2022-11-17T10:43:19.929Z,46.60
2022-11-17T10:46:06.903Z,46.94
2022-11-17T10:48:40.063Z,46.95
2022-11-17T10:51:21.703Z,46.34
2022-11-17T10:54:19.732Z,46.69
2022-11-17T10:56:56.468Z,46.40
2022-11-17T10:59:44.896Z,46.85
2022-11-17T11:02:38.968Z,47.47
2022-11-17T11:05:15.010Z,47.77
2022-11-17T11:07:45.573Z,46.74
2022-11-17T11:10:18.244Z,47.93
2022-11-17T11:13:17.741Z,47.66
2022-11-17T11:15:50.441Z,47.84
2022-11-17T11:18:22.242Z,46.90
2022-11-17T11:21:14.225Z,46.79
2022-11-17T11:24:22.361Z,46.40
2022-11-17T11:27:24.601Z,46.52
2022-11-17T11:30:17.246Z,46.37
2022-11-17T11:33:01.394Z,46.45
2022-11-17T11:36:06.215Z,46.01
2022-11-17T11:38:56.681Z,46.54
2022-11-17T11:41:56.383Z,46.77
2022-11-17T11:44:34.914Z,46.67
2022-11-17T11:47:08.174Z,46.91
2022-11-17T11:49:59.739Z,46.81
2022-11-17T11:52:36.025Z,47.08
2022-11-17T11:55:10.215Z,46.97
2022-11-17T11:57:48.353Z,47.37
2022-11-17T12:00:23.358Z,47.26
2022-11-17T12:03:15.018Z,47.56
2022-11-17T12:06:34.936Z,47.18
2022-11-17T12:09:18.803Z,47.53
2022-11-17T12:12:02.633Z,47.12
2022-11-17T12:14:36.597Z,47.89
2022-11-17T12:17:10.916Z,48.26
2022-11-17T12:19:54.832Z,48.14
2022-11-17T12:22:41.300Z,47.96
2022-11-17T12:25:50.486Z,48.18
2022-11-17T12:28:28.972Z,47.89
2022-11-17T12:31:10.140Z,48.82
2022-11-17T12:33:55.402Z,48.10
2022-11-17T12:36:34.587Z,49.11
2022-11-17T12:39:08.839Z,48.82
2022-11-17T12:41:54.663Z,48.85
2022-11-17T12:44:40.931Z,49.17
2022-11-17T12:47:23.936Z,49.55
2022-11-17T12:50:21.833Z,48.85
2022-11-17T12:53:03.304Z,48.97
2022-11-17T12:55:46.834Z,49.31
2022-11-17T12:58:52.224Z,49.02
2022-11-17T13:01:47.778Z,49.17
2022-11-17T13:04:49.406Z,49.67
2022-11-17T13:07:24.072Z,49.54
2022-11-17T13:10:00.430Z,49.25
2022-11-17T13:12:34.455Z,49.25
2022-11-17T13:15:09.052Z,49.15
2022-11-17T13:17:45.544Z,48.83
2022-11-17T13:20:35.351Z,48.54
2022-11-17T13:23:27.494Z,48.90
2022-11-17T13:26:21.279Z,48.70
2022-11-17T13:29:07.574Z,48.95
2022-11-17T13:31:39.044Z,49.20
2022-11-17T13:34:16.134Z,49.56
2022-11-17T13:36:58.626Z,49.46
2022-11-17T13:39:29.997Z,49.20
2022-11-17T13:42:03.025Z,49.47
2022-11-17T13:44:36.105Z,49.78
2022-11-17T13:47:49.006Z,49.66
2022-11-17T13:50:31.323Z,49.35
2022-11-17T13:53:06.514Z,50.14
2022-11-17T13:55:38.502Z,49.72
2022-11-17T13:58:12.814Z,49.41
2022-11-17T14:00:55.729Z,49.49
2022-11-17T14:03:37.721Z,49.00
2022-11-17T14:06:12.310Z,49.24
2022-11-17T14:08:46.855Z,49.06
2022-11-17T14:11:23.462Z,48.92
2022-11-17T14:14:02.548Z,49.24
2022-11-17T14:16:42.237Z,48.97
2022-11-17T14:19:19.526Z,49.56
2022-11-17T14:22:06.626Z,49.03
2022-11-17T14:24:38.715Z,49.61
2022-11-17T14:27:49.081Z,49.18
2022-11-17T14:30:22.499Z,49.69
2022-11-17T14:32:53.319Z,49.92
2022-11-17T14:35:25.388Z,50.21
2022-11-17T14:37:59.030Z,50.34
2022-11-17T14:40:30.964Z,50.01
2022-11-17T14:43:02.334Z,49.86
2022-11-17T14:45:36.691Z,50.44
2022-11-17T14:48:08.945Z,49.79
2022-11-17T14:50:41.586Z,50.04
2022-11-17T14:53:15.416Z,50.31
2022-11-17T14:55:46.783Z,51.89
2022-11-17T14:58:20.134Z,50.77
2022-11-17T15:00:52.405Z,50.60
2022-11-17T15:03:26.556Z,51.48
2022-11-17T15:05:57.627Z,50.53
2022-11-17T15:08:28.201Z,50.47
2022-11-17T15:10:59.201Z,50.42
2022-11-17T15:13:29.919Z,50.40
2022-11-17T15:16:09.832Z,50.14
2022-11-17T15:18:42.038Z,50.12
2022-11-17T15:21:14.210Z,50.73
2022-11-17T15:23:46.779Z,50.76
2022-11-17T15:26:25.292Z,50.77
2022-11-17T15:28:59.385Z,50.38
2022-11-17T15:31:32.045Z,52.16
2022-11-17T15:34:03.949Z,52.32
2022-11-17T15:36:34.637Z,51.35
2022-11-17T15:39:05.189Z,50.11
2022-11-17T15:41:35.947Z,51.39
2022-11-17T15:44:06.547Z,50.94
2022-11-17T15:46:39.662Z,51.95
2022-11-17T15:49:14.197Z,50.59
2022-11-17T15:51:45.468Z,51.82
2022-11-17T15:54:20.307Z,51.08
2022-11-17T15:56:53.253Z,51.19
2022-11-17T15:59:24.031Z,50.85
2022-11-17T16:01:54.924Z,51.37
2022-11-17T16:04:25.475Z,50.98
2022-11-17T16:06:57.260Z,53.03
2022-11-17T16:09:29.059Z,51.58
2022-11-17T16:12:01.274Z,51.48
2022-11-17T16:14:32.341Z,50.76
2022-11-17T16:17:03.814Z,50.57
2022-11-17T16:19:35.618Z,50.97
2022-11-17T16:22:08.093Z,50.97
2022-11-17T16:24:39.580Z,50.71
2022-11-17T16:27:13.704Z,51.04
2022-11-17T16:29:45.492Z,50.69
2022-11-17T16:32:16.266Z,50.98
2022-11-17T16:34:50.258Z,51.13
2022-11-17T16:37:21.003Z,51.19
2022-11-17T16:39:51.629Z,50.68
2022-11-17T16:42:21.694Z,50.40
2022-11-17T16:44:53.483Z,51.73
2022-11-17T16:47:24.185Z,51.16
2022-11-17T16:49:55.853Z,50.86
2022-11-17T16:52:26.514Z,51.03
2022-11-17T16:55:03.277Z,51.05
2022-11-17T16:57:36.093Z,50.92
2022-11-17T17:00:08.534Z,51.21
2022-11-17T17:02:38.878Z,51.17
2022-11-17T17:05:09.947Z,51.49
2022-11-17T17:07:40.647Z,51.44
2022-11-17T17:10:11.059Z,51.83
2022-11-17T17:12:41.124Z,51.19
2022-11-17T17:15:13.054Z,51.75
2022-11-17T17:17:43.442Z,51.72
2022-11-17T17:20:14.421Z,51.68
2022-11-17T17:22:44.618Z,51.33
2022-11-17T17:25:16.395Z,51.65
2022-11-17T17:27:46.703Z,52.28
2022-11-17T17:30:17.070Z,52.06
2022-11-17T17:32:47.167Z,51.85
2022-11-17T17:35:17.132Z,52.34
2022-11-17T17:37:48.700Z,52.12
2022-11-17T17:40:20.225Z,51.57
2022-11-17T17:42:52.054Z,51.46
2022-11-17T17:45:22.673Z,51.43
2022-11-17T17:47:54.195Z,51.85
2022-11-17T17:50:26.278Z,51.89
2022-11-17T17:52:56.767Z,51.72
2022-11-17T17:55:26.729Z,52.10
2022-11-17T17:57:57.838Z,52.18
2022-11-17T18:00:29.629Z,52.34
2022-11-17T18:03:01.770Z,52.50
2022-11-17T18:05:33.605Z,52.55
2022-11-17T18:08:06.252Z,52.81
2022-11-17T18:10:39.119Z,51.70
2022-11-17T18:13:10.973Z,52.61
2022-11-17T18:15:42.021Z,51.29
2022-11-17T18:18:12.268Z,52.54
2022-11-17T18:20:42.262Z,52.45
2022-11-17T18:23:12.466Z,53.24
2022-11-17T18:25:42.454Z,51.83
2022-11-17T18:28:14.027Z,52.18
2022-11-17T18:30:44.980Z,52.37
2022-11-17T18:33:14.934Z,52.10
2022-11-17T18:35:46.090Z,51.84
2022-11-17T18:38:16.848Z,52.31
2022-11-17T18:40:48.167Z,51.95
2022-11-17T18:43:19.277Z,52.63
2022-11-17T18:45:49.335Z,51.99
2022-11-17T18:48:20.864Z,52.13
2022-11-17T18:51:17.663Z,52.31
2022-11-17T18:53:42.389Z,52.20
2022-11-17T18:56:17.432Z,52.22
2022-11-17T18:58:47.626Z,52.00
2022-11-17T19:01:21.563Z,52.40
2022-11-17T19:03:56.446Z,51.86
2022-11-17T19:06:28.017Z,52.05
2022-11-17T19:09:02.041Z,51.48
2022-11-17T19:11:35.909Z,54.23
2022-11-17T19:14:07.510Z,53.92
2022-11-17T19:16:44.806Z,52.30
2022-11-17T19:19:16.497Z,53.03
2022-11-17T19:21:47.144Z,52.19
2022-11-17T19:24:19.426Z,51.81
2022-11-17T19:26:49.695Z,53.19
2022-11-17T19:29:21.201Z,53.57
2022-11-17T19:32:01.084Z,52.83
2022-11-17T19:34:32.264Z,54.04
2022-11-17T19:37:02.546Z,52.75
2022-11-17T19:39:32.529Z,52.14
2022-11-17T19:42:03.083Z,52.11
2022-11-17T19:44:34.839Z,51.57
2022-11-17T19:47:06.282Z,52.54
2022-11-17T19:49:36.444Z,52.19
2022-11-17T19:52:07.976Z,52.25
2022-11-17T19:54:39.791Z,52.25
2022-11-17T19:57:11.808Z,52.11
2022-11-17T19:59:41.969Z,52.50
2022-11-17T20:02:15.279Z,52.52
2022-11-17T20:04:45.596Z,52.52
2022-11-17T20:07:15.772Z,52.75
2022-11-17T20:09:46.656Z,53.71
2022-11-17T20:12:17.087Z,53.06
2022-11-17T20:14:48.494Z,53.07
2022-11-17T20:17:19.639Z,52.93
2022-11-17T20:19:50.050Z,52.84
2022-11-17T20:22:20.341Z,52.89
2022-11-17T20:24:49.740Z,52.29
2022-11-17T20:27:20.589Z,52.63
2022-11-17T20:29:51.634Z,52.73
2022-11-17T20:32:22.104Z,52.26
2022-11-17T20:34:52.344Z,52.12
2022-11-17T20:37:22.393Z,52.42
2022-11-17T20:39:53.298Z,52.48
2022-11-17T20:42:24.789Z,52.55
2022-11-17T20:44:55.200Z,52.34
2022-11-17T20:47:30.469Z,52.29
2022-11-17T20:50:01.847Z,52.07
2022-11-17T20:52:33.463Z,52.44
2022-11-17T20:55:04.605Z,52.50
2022-11-17T20:57:35.508Z,52.12
2022-11-17T21:00:06.233Z,53.20
2022-11-17T21:02:36.748Z,53.40
2022-11-17T21:05:07.023Z,54.42
2022-11-17T21:07:38.273Z,53.75
2022-11-17T21:10:09.618Z,53.20
2022-11-17T21:12:40.916Z,52.96
2022-11-17T21:15:12.798Z,53.38
2022-11-17T21:18:00.926Z,53.76
2022-11-17T21:20:32.491Z,53.32
2022-11-17T21:23:04.669Z,53.22
2022-11-17T21:25:38.056Z,53.81
2022-11-17T21:28:08.205Z,55.64
2022-11-17T21:30:38.519Z,56.53
2022-11-17T21:33:08.624Z,55.41
2022-11-17T21:35:39.977Z,54.59
2022-11-17T21:38:10.128Z,54.81
2022-11-17T21:40:40.890Z,56.62
2022-11-17T21:43:10.880Z,54.72
2022-11-17T21:45:41.132Z,54.32
2022-11-17T21:48:11.525Z,53.60
2022-11-17T21:50:46.415Z,53.12
2022-11-17T21:53:16.520Z,55.26
2022-11-17T21:55:46.558Z,53.58
2022-11-17T21:58:17.296Z,54.26
2022-11-17T22:00:47.814Z,53.25
2022-11-17T22:03:17.817Z,53.67
2022-11-17T22:05:50.078Z,53.19
2022-11-17T22:08:22.426Z,54.93
2022-11-17T22:10:51.841Z,55.12
2022-11-17T22:13:22.867Z,53.51
2022-11-17T22:15:53.848Z,55.04
2022-11-17T22:18:25.068Z,53.03
2022-11-17T22:20:55.881Z,53.51
2022-11-17T22:23:25.968Z,53.58
2022-11-17T22:26:05.615Z,53.63
2022-11-17T22:28:36.134Z,53.13
2022-11-17T22:31:11.368Z,52.85
2022-11-17T22:33:41.519Z,53.17
2022-11-17T22:36:13.060Z,53.67
2022-11-17T22:38:44.429Z,55.10
2022-11-17T22:41:15.923Z,53.50
2022-11-17T22:43:49.509Z,53.49
2022-11-17T22:46:22.349Z,54.08
2022-11-17T22:48:52.555Z,54.46
2022-11-17T22:51:41.446Z,53.61
2022-11-17T22:54:12.342Z,54.07
2022-11-17T22:56:42.832Z,55.31
2022-11-17T22:59:12.799Z,54.52
2022-11-17T23:01:43.059Z,55.20
2022-11-17T23:04:15.238Z,53.56
2022-11-17T23:06:45.928Z,53.30
2022-11-17T23:09:16.414Z,53.99
2022-11-17T23:11:46.081Z,55.38
2022-11-17T23:14:16.487Z,53.60
2022-11-17T23:16:46.523Z,54.07
2022-11-17T23:19:16.839Z,55.26
2022-11-17T23:21:47.508Z,53.92
2022-11-17T23:24:18.341Z,53.92
2022-11-17T23:26:50.041Z,53.53
2022-11-17T23:29:20.374Z,53.65
2022-11-17T23:31:50.605Z,54.91
2022-11-17T23:34:21.628Z,53.67
2022-11-17T23:36:52.814Z,53.26
2022-11-17T23:39:22.922Z,54.25
2022-11-17T23:41:53.667Z,54.20
2022-11-17T23:44:23.617Z,55.30
2022-11-17T23:46:53.566Z,54.82
2022-11-17T23:49:23.855Z,53.12
2022-11-17T23:51:53.791Z,53.24
2022-11-17T23:54:23.889Z,55.35
2022-11-17T23:56:55.479Z,54.13
2022-11-17T23:59:25.662Z,53.53
